createdAt,value
2022-09-09T00:02:21.268Z,1.00
2022-09-09T00:05:02.142Z,1.02
2022-09-09T00:07:52.656Z,1.08
2022-09-09T00:10:40.527Z,0.80
2022-09-09T00:13:34.881Z,1.20
2022-09-09T00:16:11.219Z,1.10
2022-09-09T00:18:43.927Z,1.10
2022-09-09T00:21:18.183Z,0.90
2022-09-09T00:23:51.155Z,0.80
2022-09-09T00:26:39.289Z,1.08
2022-09-09T00:29:21.172Z,0.77
2022-09-09T00:31:48.219Z,0.90
2022-09-09T00:34:19.943Z,1.05
2022-09-09T00:36:49.493Z,0.77
2022-09-09T00:39:34.197Z,1.00
2022-09-09T00:42:36.168Z,0.90
2022-09-09T00:45:29.490Z,1.02
2022-09-09T00:47:57.900Z,1.00
2022-09-09T00:50:56.839Z,0.85
2022-09-09T00:54:01.295Z,0.82
2022-09-09T00:56:43.103Z,0.95
2022-09-09T00:59:20.461Z,1.10
2022-09-09T01:01:47.408Z,1.00
2022-09-09T01:04:21.586Z,1.50
2022-09-09T01:06:55.560Z,0.95
2022-09-09T01:12:15.906Z,0.80
2022-09-09T01:14:48.837Z,1.02
2022-09-09T01:17:23.312Z,0.90
2022-09-09T01:20:11.760Z,1.00
2022-09-09T01:23:20.290Z,0.90
2022-09-09T01:26:18.399Z,0.80
2022-09-09T01:28:49.604Z,0.80
2022-09-09T01:31:27.382Z,1.10
2022-09-09T01:33:54.322Z,0.70
2022-09-09T01:36:34.241Z,1.00
2022-09-09T01:39:01.122Z,0.85
2022-09-09T01:41:28.893Z,1.00
2022-09-09T01:44:17.021Z,0.90
2022-09-09T01:46:45.425Z,0.93
2022-09-09T01:49:19.102Z,1.00
2022-09-09T01:51:50.676Z,0.95
2022-09-09T01:54:19.419Z,1.00
2022-09-09T01:57:07.443Z,0.88
2022-09-09T02:00:11.942Z,1.00
2022-09-09T02:02:56.543Z,1.08
2022-09-09T02:05:50.165Z,0.90
2022-09-09T02:11:29.820Z,0.90
2022-09-09T02:14:14.805Z,1.08
2022-09-09T02:16:58.419Z,1.05
2022-09-09T02:19:36.827Z,0.90
2022-09-09T02:22:10.827Z,1.13
2022-09-09T02:24:39.871Z,0.95
2022-09-09T02:27:17.351Z,0.80
2022-09-09T02:29:48.419Z,0.90
2022-09-09T02:32:23.231Z,1.10
2022-09-09T02:35:00.277Z,0.90
2022-09-09T02:37:34.607Z,1.30
2022-09-09T02:40:03.116Z,0.90
2022-09-09T02:42:31.460Z,1.20
2022-09-09T02:45:01.098Z,1.10
2022-09-09T02:47:34.887Z,1.10
2022-09-09T02:50:19.084Z,0.90
2022-09-09T02:53:02.603Z,0.82
2022-09-09T02:55:55.839Z,1.23
2022-09-09T03:00:59.011Z,1.20
2022-09-09T03:03:27.168Z,1.08
2022-09-09T03:05:54.255Z,1.23
2022-09-09T03:08:21.385Z,1.30
2022-09-09T03:10:48.602Z,1.08
2022-09-09T03:13:16.428Z,1.17
2022-09-09T03:15:45.087Z,0.98
2022-09-09T03:18:16.342Z,1.10
2022-09-09T03:20:49.516Z,0.93
2022-09-09T03:23:17.795Z,1.00
2022-09-09T03:25:53.166Z,0.98
2022-09-09T03:28:32.030Z,0.82
2022-09-09T03:31:01.677Z,1.00
2022-09-09T03:33:32.131Z,1.17
2022-09-09T03:35:59.697Z,1.02
2022-09-09T03:38:26.722Z,1.02
2022-09-09T03:40:58.502Z,1.10
2022-09-09T03:43:27.418Z,1.35
2022-09-09T03:45:57.758Z,1.13
2022-09-09T03:48:27.966Z,1.10
2022-09-09T03:51:01.526Z,1.00
2022-09-09T03:53:29.853Z,1.17
2022-09-09T03:56:00.745Z,1.15
2022-09-09T03:58:28.727Z,1.10
2022-09-09T04:01:06.960Z,1.10
2022-09-09T04:03:34.536Z,1.13
2022-09-09T04:06:03.105Z,1.20
2022-09-09T04:08:34.912Z,1.02
2022-09-09T04:11:06.254Z,0.80
2022-09-09T04:13:35.970Z,1.10
2022-09-09T04:16:04.771Z,1.25
2022-09-09T04:18:33.732Z,1.00
2022-09-09T04:21:01.146Z,1.10
2022-09-09T04:23:30.407Z,1.13
2022-09-09T04:26:00.020Z,1.00
2022-09-09T04:28:30.229Z,1.30
2022-09-09T04:30:58.511Z,1.10
2022-09-09T04:33:28.968Z,1.13
2022-09-09T04:35:56.117Z,1.00
2022-09-09T04:38:25.221Z,1.10
2022-09-09T04:40:53.257Z,0.75
2022-09-09T04:43:20.833Z,1.17
2022-09-09T04:45:50.099Z,1.27
2022-09-09T04:48:17.005Z,1.15
2022-09-09T04:50:43.828Z,1.10
2022-09-09T04:53:12.463Z,0.90
2022-09-09T04:55:39.617Z,0.90
2022-09-09T04:58:08.583Z,1.30
2022-09-09T05:00:36.901Z,1.05
2022-09-09T05:03:09.789Z,0.80
2022-09-09T05:05:37.352Z,1.33
2022-09-09T05:08:09.875Z,1.17
2022-09-09T05:10:39.262Z,1.13
2022-09-09T05:13:07.434Z,1.10
2022-09-09T05:15:34.493Z,1.08
2022-09-09T05:18:03.469Z,1.10
2022-09-09T05:20:32.731Z,1.30
2022-09-09T05:22:59.736Z,1.30
2022-09-09T05:25:29.430Z,1.10
2022-09-09T05:27:57.369Z,1.20
2022-09-09T05:30:24.213Z,0.90
2022-09-09T05:32:52.221Z,0.90
2022-09-09T05:35:20.105Z,1.00
2022-09-09T05:37:47.083Z,1.08
2022-09-09T05:40:14.375Z,1.10
2022-09-09T05:42:41.798Z,1.15
2022-09-09T05:45:10.137Z,1.15
2022-09-09T05:47:38.297Z,1.20
2022-09-09T05:50:08.655Z,0.93
2022-09-09T05:52:35.596Z,1.00
2022-09-09T05:55:02.659Z,1.05
2022-09-09T05:57:29.761Z,1.10
2022-09-09T05:59:56.385Z,1.05
2022-09-09T06:02:23.187Z,1.00
2022-09-09T06:04:50.516Z,0.90
2022-09-09T06:07:17.670Z,1.10
2022-09-09T06:09:44.363Z,1.20
2022-09-09T06:12:12.280Z,0.73
2022-09-09T06:14:41.157Z,0.90
2022-09-09T06:17:11.244Z,0.77
2022-09-09T06:19:38.185Z,0.98
2022-09-09T06:22:06.379Z,0.82
2022-09-09T06:24:36.154Z,1.15
2022-09-09T06:27:03.807Z,0.90
2022-09-09T06:29:34.763Z,1.10
2022-09-09T06:32:04.043Z,0.85
2022-09-09T06:34:31.208Z,0.73
2022-09-09T06:36:59.359Z,1.48
2022-09-09T06:39:30.507Z,1.70
2022-09-09T06:41:58.732Z,1.00
2022-09-09T06:44:48.515Z,0.93
2022-09-09T06:47:25.645Z,0.90
2022-09-09T06:49:53.194Z,0.80
2022-09-09T06:52:20.385Z,0.75
2022-09-09T06:54:47.720Z,0.82
2022-09-09T06:57:35.831Z,0.77
2022-09-09T07:00:04.416Z,1.02
2022-09-09T07:02:33.180Z,0.70
2022-09-09T07:05:01.071Z,1.00
2022-09-09T07:07:28.369Z,0.82
2022-09-09T07:09:56.589Z,0.65
2022-09-09T07:12:23.297Z,0.95
2022-09-09T07:14:59.692Z,0.65
2022-09-09T07:17:26.464Z,0.93
2022-09-09T07:19:53.817Z,0.88
2022-09-09T07:22:21.431Z,0.75
2022-09-09T07:24:48.167Z,0.80
2022-09-09T07:27:15.989Z,0.70
2022-09-09T07:29:43.318Z,0.68
2022-09-09T07:32:10.988Z,0.82
2022-09-09T07:34:38.534Z,0.77
2022-09-09T07:37:06.255Z,0.57
2022-09-09T07:39:33.903Z,1.05
2022-09-09T07:42:00.676Z,0.80
2022-09-09T07:44:28.575Z,0.82
2022-09-09T07:47:04.200Z,0.60
2022-09-09T07:49:36.626Z,0.52
2022-09-09T07:52:05.288Z,0.50
2022-09-09T07:54:33.786Z,0.80
2022-09-09T07:57:05.309Z,0.60
2022-09-09T07:59:34.994Z,0.60
2022-09-09T08:02:03.098Z,0.52
2022-09-09T08:04:33.026Z,0.40
2022-09-09T08:07:02.031Z,0.50
2022-09-09T08:09:30.783Z,0.60
2022-09-09T08:12:17.731Z,0.45
2022-09-09T08:14:48.155Z,0.50
2022-09-09T08:17:15.037Z,0.45
2022-09-09T08:19:43.594Z,0.40
2022-09-09T08:22:15.318Z,0.50
2022-09-09T08:24:42.122Z,0.40
2022-09-09T08:27:10.875Z,0.52
2022-09-09T08:29:38.899Z,0.50
2022-09-09T08:32:06.054Z,0.50
2022-09-09T08:34:34.946Z,0.85
2022-09-09T08:37:05.824Z,0.63
2022-09-09T08:39:37.863Z,0.80
2022-09-09T08:42:29.727Z,0.85
2022-09-09T08:44:57.152Z,0.52
2022-09-09T08:47:43.783Z,0.50
2022-09-09T08:50:20.777Z,0.80
2022-09-09T08:53:06.815Z,0.50
2022-09-09T08:55:56.348Z,0.60
2022-09-09T08:58:33.866Z,0.40
2022-09-09T09:01:10.218Z,0.50
2022-09-09T09:03:55.255Z,0.73
2022-09-09T09:06:31.948Z,0.80
2022-09-09T09:09:08.355Z,0.40
2022-09-09T09:11:38.497Z,0.52
2022-09-09T09:14:25.454Z,0.47
2022-09-09T09:17:01.093Z,0.50
2022-09-09T09:19:31.142Z,0.45
2022-09-09T09:22:11.651Z,0.70
2022-09-09T09:25:06.094Z,0.57
2022-09-09T09:27:45.028Z,0.47
2022-09-09T09:30:28.983Z,0.55
2022-09-09T09:33:06.403Z,0.70
2022-09-09T09:35:36.283Z,0.63
2022-09-09T09:41:11.124Z,0.75
2022-09-09T09:43:43.421Z,0.50
2022-09-09T09:46:26.767Z,0.60
2022-09-09T09:49:06.727Z,0.90
2022-09-09T09:51:35.438Z,0.60
2022-09-09T09:54:14.471Z,0.63
2022-09-09T09:56:43.695Z,0.60
2022-09-09T09:59:23.735Z,0.60
2022-09-09T10:02:15.314Z,0.82
2022-09-09T10:04:42.966Z,0.57
2022-09-09T10:07:17.871Z,0.30
2022-09-09T10:09:44.585Z,0.50
2022-09-09T10:12:46.002Z,0.50
2022-09-09T10:16:03.345Z,0.60
2022-09-09T10:19:05.454Z,0.50
2022-09-09T10:21:48.753Z,0.75
2022-09-09T10:24:27.604Z,0.80
2022-09-09T10:27:33.122Z,0.80
2022-09-09T10:30:09.812Z,0.88
2022-09-09T10:32:47.092Z,0.70
2022-09-09T10:35:25.570Z,0.80
2022-09-09T10:38:11.946Z,0.75
2022-09-09T10:40:56.379Z,0.70
2022-09-09T10:43:39.696Z,0.40
2022-09-09T10:46:29.513Z,0.80
2022-09-09T10:49:22.054Z,1.02
2022-09-09T10:52:06.249Z,1.00
2022-09-09T10:54:52.648Z,0.50
2022-09-09T10:57:39.882Z,0.40
2022-09-09T11:00:16.342Z,0.68
2022-09-09T11:02:43.137Z,0.57
2022-09-09T11:05:43.524Z,0.63
2022-09-09T11:08:26.165Z,0.60
2022-09-09T11:11:14.786Z,0.55
2022-09-09T11:13:49.686Z,0.60
2022-09-09T11:16:22.229Z,0.60
2022-09-09T11:18:49.281Z,0.57
2022-09-09T11:21:27.496Z,0.63
2022-09-09T11:23:59.014Z,0.73
2022-09-09T11:26:33.159Z,0.60
2022-09-09T11:29:21.027Z,0.55
2022-09-09T11:32:11.433Z,0.70
2022-09-09T11:35:03.209Z,0.55
2022-09-09T11:37:46.321Z,0.65
2022-09-09T11:40:26.366Z,0.50
2022-09-09T11:43:25.118Z,0.50
2022-09-09T11:46:00.206Z,0.65
2022-09-09T11:48:37.684Z,0.47
2022-09-09T11:51:13.272Z,0.50
2022-09-09T11:53:55.570Z,0.35
2022-09-09T11:56:27.586Z,0.40
2022-09-09T11:59:20.193Z,0.45
2022-09-09T12:01:57.447Z,0.55
2022-09-09T12:04:32.932Z,0.70
2022-09-09T12:07:03.665Z,0.73
2022-09-09T12:09:40.997Z,0.80
2022-09-09T12:12:13.501Z,0.35
2022-09-09T12:14:43.025Z,0.55
2022-09-09T12:17:23.552Z,0.63
2022-09-09T12:20:24.672Z,0.82
2022-09-09T12:23:07.096Z,0.60
2022-09-09T12:25:46.403Z,0.50
2022-09-09T12:28:21.282Z,0.70
2022-09-09T12:31:09.691Z,0.70
2022-09-09T12:33:40.443Z,0.50
2022-09-09T12:36:13.709Z,0.57
2022-09-09T12:38:44.659Z,0.65
2022-09-09T12:41:21.883Z,0.45
2022-09-09T12:43:48.692Z,0.70
2022-09-09T12:46:29.035Z,0.60
2022-09-09T12:48:56.708Z,0.80
2022-09-09T12:51:34.330Z,0.40
2022-09-09T12:54:01.674Z,0.80
2022-09-09T12:56:31.778Z,0.63
2022-09-09T12:58:59.570Z,0.93
2022-09-09T13:01:34.469Z,0.38
2022-09-09T13:04:01.743Z,0.57
2022-09-09T13:06:30.891Z,0.63
2022-09-09T13:09:00.723Z,0.60
2022-09-09T13:11:32.355Z,0.57
2022-09-09T13:14:00.537Z,0.45
2022-09-09T13:16:34.995Z,0.60
2022-09-09T13:19:10.864Z,0.40
2022-09-09T13:21:39.758Z,0.30
2022-09-09T13:24:33.463Z,0.50
2022-09-09T13:27:03.234Z,0.50
2022-09-09T13:29:31.940Z,0.43
2022-09-09T13:32:07.384Z,0.30
2022-09-09T13:34:38.686Z,0.65
2022-09-09T13:37:28.537Z,0.40
2022-09-09T13:39:55.890Z,0.50
2022-09-09T13:42:29.810Z,0.57
2022-09-09T13:44:58.045Z,0.38
2022-09-09T13:47:35.407Z,0.50
2022-09-09T13:50:24.352Z,0.30
2022-09-09T13:52:54.052Z,0.40
2022-09-09T13:55:23.395Z,0.30
2022-09-09T13:57:56.876Z,0.30
2022-09-09T14:00:25.135Z,0.40
2022-09-09T14:02:52.357Z,0.20
2022-09-09T14:05:19.842Z,0.25
2022-09-09T14:07:50.090Z,0.55
2022-09-09T14:10:19.298Z,0.20
2022-09-09T14:12:47.599Z,0.20
2022-09-09T14:15:15.358Z,0.20
2022-09-09T14:17:42.048Z,0.38
2022-09-09T14:20:10.180Z,0.10
2022-09-09T14:22:37.601Z,0.15
2022-09-09T14:25:05.186Z,0.10
2022-09-09T14:27:32.047Z,0.20
2022-09-09T14:29:58.832Z,0.30
2022-09-09T14:32:25.635Z,0.30
2022-09-09T14:34:52.390Z,0.13
2022-09-09T14:37:19.641Z,0.28
2022-09-09T14:39:47.997Z,0.30
2022-09-09T14:42:15.831Z,0.30
2022-09-09T14:44:42.705Z,0.20
2022-09-09T14:47:09.631Z,0.30
2022-09-09T14:49:36.822Z,0.30
2022-09-09T14:52:04.862Z,0.43
2022-09-09T14:54:33.005Z,0.30
2022-09-09T14:57:00.061Z,0.20
2022-09-09T14:59:27.770Z,0.30
2022-09-09T15:01:54.436Z,0.20
2022-09-09T15:04:21.427Z,0.20
2022-09-09T15:06:49.332Z,0.20
2022-09-09T15:09:16.818Z,0.30
2022-09-09T15:11:44.554Z,0.50
2022-09-09T15:14:12.999Z,0.20
2022-09-09T15:16:40.700Z,0.30
2022-09-09T15:19:07.577Z,0.15
2022-09-09T15:21:36.851Z,0.30
2022-09-09T15:24:03.886Z,0.47
2022-09-09T15:26:31.160Z,0.28
2022-09-09T15:29:00.088Z,0.30
2022-09-09T15:31:31.850Z,0.30
2022-09-09T15:34:03.957Z,0.32
2022-09-09T15:36:33.390Z,0.40
2022-09-09T15:39:01.258Z,0.47
2022-09-09T15:41:28.810Z,0.10
2022-09-09T15:44:01.373Z,0.57
2022-09-09T15:46:40.412Z,0.20
2022-09-09T15:49:19.255Z,0.47
2022-09-09T15:51:48.140Z,0.20
2022-09-09T15:54:19.636Z,0.20
2022-09-09T15:56:49.703Z,0.28
2022-09-09T15:59:17.014Z,0.50
2022-09-09T16:01:44.919Z,0.30
2022-09-09T16:04:11.815Z,0.20
2022-09-09T16:06:38.645Z,0.40
2022-09-09T16:09:06.855Z,0.22
2022-09-09T16:11:37.593Z,0.40
2022-09-09T16:14:06.300Z,0.60
2022-09-09T16:16:33.295Z,0.55
2022-09-09T16:19:05.122Z,0.40
2022-09-09T16:21:43.980Z,0.40
2022-09-09T16:24:13.268Z,0.32
2022-09-09T16:26:45.568Z,0.45
2022-09-09T16:29:16.244Z,0.45
2022-09-09T16:31:43.700Z,0.40
2022-09-09T16:34:10.557Z,0.40
2022-09-09T16:36:40.087Z,0.50
2022-09-09T16:39:12.893Z,0.40
2022-09-09T16:41:41.377Z,0.50
2022-09-09T16:44:10.417Z,0.65
2022-09-09T16:46:40.464Z,0.50
2022-09-09T16:49:09.461Z,0.35
2022-09-09T16:51:45.752Z,0.22
2022-09-09T16:54:14.829Z,0.20
2022-09-09T16:56:43.608Z,0.30
2022-09-09T16:59:14.262Z,0.30
2022-09-09T17:01:44.151Z,0.55
2022-09-09T17:04:21.145Z,0.30
2022-09-09T17:06:50.259Z,0.60
2022-09-09T17:09:18.148Z,0.63
2022-09-09T17:11:46.355Z,0.50
2022-09-09T17:14:16.692Z,0.40
2022-09-09T17:16:43.797Z,0.40
2022-09-09T17:19:10.715Z,0.40
2022-09-09T17:21:49.552Z,0.70
2022-09-09T17:24:29.983Z,0.50
2022-09-09T17:26:57.227Z,0.47
2022-09-09T17:29:24.060Z,0.38
2022-09-09T17:31:52.256Z,0.38
2022-09-09T17:34:19.005Z,0.60
2022-09-09T17:36:45.758Z,0.40
2022-09-09T17:39:12.435Z,0.35
2022-09-09T17:41:40.673Z,0.75
2022-09-09T17:46:43.844Z,0.50
2022-09-09T17:49:14.529Z,0.50
2022-09-09T17:51:42.793Z,0.50
2022-09-09T17:54:20.450Z,0.60
2022-09-09T17:56:48.583Z,0.82
2022-09-09T17:59:17.195Z,0.50
2022-09-09T18:01:48.250Z,0.45
2022-09-09T18:04:17.317Z,0.50
2022-09-09T18:06:47.611Z,0.40
2022-09-09T18:09:17.828Z,0.38
2022-09-09T18:11:47.644Z,0.73
2022-09-09T18:14:18.109Z,0.40
2022-09-09T18:16:45.951Z,0.50
2022-09-09T18:19:15.113Z,0.52
2022-09-09T18:21:43.806Z,0.55
2022-09-09T18:24:12.411Z,0.50
2022-09-09T18:26:40.526Z,0.50
2022-09-09T18:29:10.306Z,0.50
2022-09-09T18:31:37.889Z,0.60
2022-09-09T18:34:07.345Z,0.40
2022-09-09T18:36:40.500Z,0.70
2022-09-09T18:39:08.868Z,0.82
2022-09-09T18:41:38.517Z,0.28
2022-09-09T18:44:09.276Z,0.80
2022-09-09T18:46:37.448Z,0.90
2022-09-09T18:49:05.687Z,0.50
2022-09-09T18:51:35.245Z,0.50
2022-09-09T18:54:09.367Z,0.60
2022-09-09T18:56:36.928Z,0.80
2022-09-09T18:59:06.393Z,0.60
2022-09-09T19:01:35.546Z,0.80
2022-09-09T19:04:06.150Z,0.50
2022-09-09T19:06:34.468Z,0.77
2022-09-09T19:09:03.662Z,0.77
2022-09-09T19:11:31.937Z,0.68
2022-09-09T19:14:01.503Z,0.90
2022-09-09T19:16:30.397Z,0.70
2022-09-09T19:19:02.367Z,0.50
2022-09-09T19:21:36.032Z,0.60
2022-09-09T19:24:06.137Z,0.70
2022-09-09T19:26:40.481Z,0.45
2022-09-09T19:29:10.187Z,0.60
2022-09-09T19:31:38.019Z,0.90
2022-09-09T19:34:05.163Z,0.77
2022-09-09T19:36:32.162Z,0.50
2022-09-09T19:39:00.231Z,0.70
2022-09-09T19:41:28.753Z,0.55
2022-09-09T19:44:01.883Z,0.70
2022-09-09T19:46:30.360Z,0.77
2022-09-09T19:48:58.366Z,0.50
2022-09-09T19:51:26.721Z,0.95
2022-09-09T19:53:58.220Z,0.77
2022-09-09T19:56:28.243Z,0.70
2022-09-09T19:58:55.805Z,0.77
2022-09-09T20:01:28.415Z,0.70
2022-09-09T20:03:57.991Z,0.75
2022-09-09T20:06:27.378Z,0.60
2022-09-09T20:08:55.069Z,0.80
2022-09-09T20:11:22.237Z,0.80
2022-09-09T20:13:49.557Z,0.73
2022-09-09T20:16:19.191Z,0.73
2022-09-09T20:18:55.061Z,0.68
2022-09-09T20:21:24.582Z,0.77
2022-09-09T20:23:52.649Z,0.88
2022-09-09T20:26:21.900Z,0.73
2022-09-09T20:28:50.668Z,0.80
2022-09-09T20:31:20.780Z,0.63
2022-09-09T20:33:48.385Z,0.63
2022-09-09T20:36:27.445Z,0.65
2022-09-09T20:38:59.943Z,0.60
2022-09-09T20:41:29.163Z,0.80
2022-09-09T20:43:57.307Z,0.47
2022-09-09T20:46:26.790Z,0.60
2022-09-09T20:48:59.677Z,0.52
2022-09-09T20:51:32.859Z,0.73
2022-09-09T20:54:12.226Z,0.50
2022-09-09T20:56:40.817Z,0.52
2022-09-09T20:59:12.304Z,0.70
2022-09-09T21:01:40.023Z,0.60
2022-09-09T21:04:08.214Z,0.60
2022-09-09T21:06:35.066Z,0.60
2022-09-09T21:09:01.989Z,0.63
2022-09-09T21:11:28.874Z,0.50
2022-09-09T21:13:56.436Z,0.70
2022-09-09T21:16:23.151Z,0.40
2022-09-09T21:18:50.309Z,1.05
2022-09-09T21:21:19.300Z,0.60
2022-09-09T21:23:45.949Z,0.80
2022-09-09T21:26:12.989Z,0.77
2022-09-09T21:28:39.752Z,0.70
2022-09-09T21:31:06.651Z,0.70
2022-09-09T21:33:34.547Z,0.90
2022-09-09T21:36:06.317Z,0.43
2022-09-09T21:38:34.086Z,0.60
2022-09-09T21:41:05.529Z,0.68
2022-09-09T21:43:32.856Z,0.60
2022-09-09T21:45:59.987Z,0.90
2022-09-09T21:48:26.743Z,0.75
2022-09-09T21:50:54.789Z,0.70
2022-09-09T21:53:21.613Z,0.80
2022-09-09T21:55:48.930Z,0.73
2022-09-09T21:58:16.869Z,0.50
2022-09-09T22:00:45.487Z,0.60
2022-09-09T22:03:15.253Z,0.75
2022-09-09T22:05:43.805Z,0.70
2022-09-09T22:08:11.775Z,0.70
2022-09-09T22:10:40.418Z,0.57
2022-09-09T22:13:07.601Z,0.50
2022-09-09T22:15:34.803Z,0.95
2022-09-09T22:18:05.599Z,0.63
2022-09-09T22:20:34.667Z,0.85
2022-09-09T22:23:01.954Z,1.08
2022-09-09T22:25:33.296Z,1.05
2022-09-09T22:28:00.054Z,0.73
2022-09-09T22:30:26.891Z,0.60
2022-09-09T22:32:53.564Z,0.75
2022-09-09T22:35:20.190Z,0.75
2022-09-09T22:37:47.328Z,0.70
2022-09-09T22:40:14.276Z,0.80
2022-09-09T22:42:41.799Z,0.70
2022-09-09T22:45:10.125Z,0.77
2022-09-09T22:47:37.383Z,0.70
2022-09-09T22:50:04.435Z,0.80
2022-09-09T22:52:32.119Z,0.73
2022-09-09T22:54:59.345Z,0.77
2022-09-09T22:57:26.775Z,0.68
2022-09-09T22:59:53.549Z,0.80
2022-09-09T23:02:21.663Z,0.77
2022-09-09T23:04:48.930Z,0.70
2022-09-09T23:07:19.781Z,0.73
2022-09-09T23:09:47.833Z,0.70
2022-09-09T23:12:14.918Z,0.73
2022-09-09T23:14:41.615Z,0.90
2022-09-09T23:17:08.739Z,0.68
2022-09-09T23:19:37.080Z,0.85
2022-09-09T23:22:03.822Z,0.98
2022-09-09T23:24:30.616Z,0.70
2022-09-09T23:26:57.254Z,0.85
2022-09-09T23:29:23.922Z,0.90
2022-09-09T23:31:50.732Z,0.90
2022-09-09T23:34:17.970Z,0.80
2022-09-09T23:36:44.716Z,0.70
2022-09-09T23:39:13.078Z,0.75
2022-09-09T23:41:40.317Z,0.88
2022-09-09T23:44:07.444Z,1.00
2022-09-09T23:46:35.101Z,0.70
2022-09-09T23:49:02.642Z,0.88
2022-09-09T23:51:30.978Z,0.90
2022-09-09T23:54:00.365Z,1.00
2022-09-09T23:56:30.022Z,0.90
2022-09-09T23:58:56.837Z,0.90
